createdAt,value
2019-04-10T00:00:37.304Z,98958.15
2019-04-10T00:03:06.774Z,98954.09
2019-04-10T00:05:36.233Z,98957.69
2019-04-10T00:08:06.232Z,98959.65
2019-04-10T00:10:36.214Z,98962.26
2019-04-10T00:13:06.653Z,98957.70
2019-04-10T00:15:36.296Z,98956.70
2019-04-10T00:18:07.349Z,98960.61
2019-04-10T00:20:36.933Z,98957.34
2019-04-10T00:23:06.757Z,98954.88
2019-04-10T00:25:37.111Z,98948.81
2019-04-10T00:28:08.003Z,98946.95
2019-04-10T00:30:37.823Z,98945.98
2019-04-10T00:33:08.227Z,98942.89
2019-04-10T00:35:37.517Z,98942.73
2019-04-10T00:38:07.160Z,98946.00
2019-04-10T00:40:36.635Z,98948.00
2019-04-10T00:43:06.634Z,98946.84
2019-04-10T00:45:35.922Z,98935.41
2019-04-10T00:48:05.835Z,98935.51
2019-04-10T00:50:36.922Z,98932.20
2019-04-10T00:53:06.491Z,98947.98
2019-04-10T00:55:35.745Z,98942.20
2019-04-10T00:58:05.818Z,98936.80
2019-04-10T01:00:36.761Z,98930.26
2019-04-10T01:03:07.431Z,98931.51
2019-04-10T01:05:37.665Z,98928.09
2019-04-10T01:08:07.002Z,98930.50
2019-04-10T01:10:36.707Z,98940.41
2019-04-10T01:13:06.188Z,98939.05
2019-04-10T01:15:36.460Z,98940.36
2019-04-10T01:18:06.758Z,98935.88
2019-04-10T01:20:36.182Z,98924.91
2019-04-10T01:23:05.795Z,98920.28
2019-04-10T01:25:35.281Z,98932.90
2019-04-10T01:28:04.721Z,98934.12
2019-04-10T01:30:34.807Z,98944.97
2019-04-10T01:33:04.115Z,98943.02
2019-04-10T01:35:34.123Z,98942.44
2019-04-10T01:38:05.897Z,98938.81
2019-04-10T01:40:35.209Z,98946.63
2019-04-10T01:43:12.241Z,98948.28
2019-04-10T01:45:35.755Z,98952.12
2019-04-10T01:48:05.946Z,98955.01
2019-04-10T01:50:35.362Z,98944.53
2019-04-10T01:53:05.606Z,98943.92
2019-04-10T01:55:35.923Z,98941.18
2019-04-10T01:58:06.750Z,98945.09
2019-04-10T02:00:37.621Z,98945.41
2019-04-10T02:03:06.869Z,98941.18
2019-04-10T02:05:36.681Z,98945.23
2019-04-10T02:08:09.112Z,98944.39
2019-04-10T02:10:36.980Z,98944.39
2019-04-10T02:13:07.333Z,98944.88
2019-04-10T02:15:36.723Z,98947.83
2019-04-10T02:18:05.953Z,98954.05
2019-04-10T02:20:35.114Z,98945.41
2019-04-10T02:23:04.304Z,98949.42
2019-04-10T02:25:36.872Z,98946.46
2019-04-10T02:28:06.948Z,98951.53
2019-04-10T02:30:37.324Z,98945.52
2019-04-10T02:33:08.436Z,98949.20
2019-04-10T02:35:38.062Z,98949.98
2019-04-10T02:38:29.183Z,98949.77
2019-04-10T02:40:39.225Z,98953.53
2019-04-10T02:43:10.289Z,98954.63
2019-04-10T02:45:40.375Z,98950.94
2019-04-10T02:48:12.149Z,98954.34
2019-04-10T02:50:42.836Z,98951.60
2019-04-10T02:53:13.079Z,98950.65
2019-04-10T02:55:43.178Z,98952.59
2019-04-10T02:58:14.119Z,98954.03
2019-04-10T03:00:44.150Z,98961.00
2019-04-10T03:03:13.937Z,98956.95
2019-04-10T03:05:44.632Z,98954.48
2019-04-10T03:08:15.861Z,98952.73
2019-04-10T03:10:51.758Z,98954.70
2019-04-10T03:13:17.770Z,98949.48
2019-04-10T03:15:47.628Z,98950.72
2019-04-10T03:18:17.151Z,98947.17
2019-04-10T03:20:46.800Z,98946.82
2019-04-10T03:23:17.565Z,98948.61
2019-04-10T03:25:46.814Z,98951.98
2019-04-10T03:28:16.668Z,98949.39
2019-04-10T03:30:46.690Z,98946.58
2019-04-10T03:33:31.157Z,98949.03
2019-04-10T03:35:58.980Z,98949.52
2019-04-10T03:38:28.321Z,98948.02
2019-04-10T03:40:57.707Z,98947.67
2019-04-10T03:43:27.872Z,98948.97
2019-04-10T03:45:57.229Z,98947.81
2019-04-10T03:48:27.171Z,98953.71
2019-04-10T03:50:57.581Z,98954.52
2019-04-10T03:53:27.384Z,98955.61
2019-04-10T03:55:57.092Z,98952.34
2019-04-10T03:58:27.320Z,98958.36
2019-04-10T04:00:56.888Z,98955.44
2019-04-10T04:03:26.792Z,98957.48
2019-04-10T04:05:57.171Z,98963.98
2019-04-10T04:08:27.719Z,98968.86
2019-04-10T04:10:57.281Z,98971.25
2019-04-10T04:13:26.534Z,98969.46
2019-04-10T04:15:55.733Z,98969.60
2019-04-10T04:18:24.976Z,98976.38
2019-04-10T04:20:55.055Z,98979.48
2019-04-10T04:23:24.311Z,98984.19
2019-04-10T04:25:54.666Z,98982.56
2019-04-10T04:28:23.877Z,98985.91
2019-04-10T04:30:53.816Z,98984.75
2019-04-10T04:33:23.324Z,98980.38
2019-04-10T04:35:53.219Z,98981.75
2019-04-10T04:38:23.538Z,98982.16
2019-04-10T04:40:54.713Z,98983.46
2019-04-10T04:43:25.029Z,98977.23
2019-04-10T04:45:55.323Z,98986.20
2019-04-10T04:48:24.662Z,98988.80
2019-04-10T04:50:54.434Z,98996.73
2019-04-10T04:53:23.711Z,98998.50
2019-04-10T04:55:53.406Z,98993.52
2019-04-10T04:58:22.770Z,99005.09
2019-04-10T05:00:52.285Z,99002.95
2019-04-10T05:03:22.737Z,99003.37
2019-04-10T05:05:52.129Z,98991.38
2019-04-10T05:08:21.767Z,98990.35
2019-04-10T05:10:51.149Z,98991.93
2019-04-10T05:13:20.260Z,98992.69
2019-04-10T05:15:49.462Z,98995.16
2019-04-10T05:18:19.049Z,99001.66
2019-04-10T05:20:50.432Z,99006.66
2019-04-10T05:23:19.163Z,99003.30
2019-04-10T05:25:48.362Z,99004.88
2019-04-10T05:28:17.526Z,99009.05
2019-04-10T05:30:46.731Z,99012.67
2019-04-10T05:33:16.213Z,99012.48
2019-04-10T05:35:45.679Z,99017.06
2019-04-10T05:38:14.889Z,99023.34
2019-04-10T05:40:44.313Z,99024.31
2019-04-10T05:43:13.713Z,99022.06
2019-04-10T05:45:42.830Z,99024.61
2019-04-10T05:48:12.057Z,99019.19
2019-04-10T05:50:52.607Z,99017.75
2019-04-10T05:53:12.124Z,99020.16
2019-04-10T05:55:45.205Z,99022.05
2019-04-10T05:58:15.463Z,99025.22
2019-04-10T06:00:45.108Z,99026.38
2019-04-10T06:03:14.551Z,99030.05
2019-04-10T06:05:44.491Z,99031.57
2019-04-10T06:08:14.034Z,99025.00
2019-04-10T06:10:43.653Z,99026.06
2019-04-10T06:13:13.049Z,99030.44
2019-04-10T06:15:43.393Z,99026.88
2019-04-10T06:18:13.880Z,99031.88
2019-04-10T06:20:43.761Z,99023.53
2019-04-10T06:23:12.840Z,99029.94
2019-04-10T06:25:43.433Z,99025.03
2019-04-10T06:28:12.991Z,99023.69
2019-04-10T06:30:43.816Z,99018.48
2019-04-10T06:33:12.989Z,99018.91
2019-04-10T06:35:42.256Z,99029.54
2019-04-10T06:38:11.398Z,99026.48
2019-04-10T06:40:40.540Z,99032.39
2019-04-10T06:43:09.917Z,99030.00
2019-04-10T06:45:39.927Z,99028.66
2019-04-10T06:48:09.306Z,99021.62
2019-04-10T06:50:39.198Z,99022.58
2019-04-10T06:53:08.571Z,99025.63
2019-04-10T06:55:38.517Z,99017.81
2019-04-10T06:58:07.965Z,99020.11
2019-04-10T07:00:37.437Z,99023.53
2019-04-10T07:03:06.604Z,99028.36
2019-04-10T07:05:40.889Z,99034.37
2019-04-10T07:08:14.448Z,99026.41
2019-04-10T07:10:49.153Z,99025.00
2019-04-10T07:13:10.828Z,99025.50
2019-04-10T07:15:42.472Z,99023.75
2019-04-10T07:18:15.220Z,99021.02
2019-04-10T07:20:42.153Z,99018.92
2019-04-10T07:23:14.559Z,99025.41
2019-04-10T07:25:45.522Z,99023.73
2019-04-10T07:28:14.365Z,99025.50
2019-04-10T07:30:43.620Z,99021.06
2019-04-10T07:33:16.537Z,99021.85
2019-04-10T07:35:44.339Z,99017.55
2019-04-10T07:38:13.964Z,99023.27
2019-04-10T07:40:43.275Z,99024.33
2019-04-10T07:43:13.301Z,99021.88
2019-04-10T07:45:42.649Z,99025.03
2019-04-10T07:48:12.879Z,99028.59
2019-04-10T07:50:45.310Z,99032.16
2019-04-10T07:53:13.097Z,99032.82
2019-04-10T07:55:55.174Z,99029.55
2019-04-10T07:58:13.293Z,99028.72
2019-04-10T08:00:42.921Z,99031.63
2019-04-10T08:03:12.517Z,99028.31
2019-04-10T08:05:41.882Z,99029.00
2019-04-10T08:08:11.199Z,99028.82
2019-04-10T08:10:42.353Z,99033.80
2019-04-10T08:13:12.149Z,99032.84
2019-04-10T08:15:41.458Z,99029.91
2019-04-10T08:18:10.618Z,99030.23
2019-04-10T08:20:40.305Z,99032.68
2019-04-10T08:23:10.185Z,99029.20
2019-04-10T08:25:40.827Z,99032.66
2019-04-10T08:28:11.242Z,99040.64
2019-04-10T08:30:41.880Z,99033.20
2019-04-10T08:33:11.964Z,99029.60
2019-04-10T08:35:41.914Z,99038.88
2019-04-10T08:38:11.344Z,99040.98
2019-04-10T08:40:40.601Z,99037.59
2019-04-10T08:43:09.684Z,99037.23
2019-04-10T08:45:46.719Z,99039.06
2019-04-10T08:48:10.043Z,99033.85
2019-04-10T08:50:39.349Z,99038.40
2019-04-10T08:53:09.546Z,99030.94
2019-04-10T08:55:40.002Z,99027.12
2019-04-10T08:58:10.347Z,99020.89
2019-04-10T09:00:40.694Z,99026.58
2019-04-10T09:03:10.804Z,99022.95
2019-04-10T09:05:40.229Z,99021.25
2019-04-10T09:08:09.423Z,99025.74
2019-04-10T09:10:38.736Z,99018.65
2019-04-10T09:13:08.374Z,99013.77
2019-04-10T09:15:38.222Z,99010.92
2019-04-10T09:18:08.554Z,99010.08
2019-04-10T09:20:38.587Z,99013.41
2019-04-10T09:23:20.207Z,99010.95
2019-04-10T09:25:39.447Z,99016.98
2019-04-10T09:28:08.893Z,99006.22
2019-04-10T09:30:38.138Z,98999.41
2019-04-10T09:33:16.955Z,98996.45
2019-04-10T09:35:38.498Z,98995.19
2019-04-10T09:38:07.741Z,98993.17
2019-04-10T09:40:38.335Z,98990.16
2019-04-10T09:43:07.670Z,98994.55
2019-04-10T09:45:37.159Z,98988.40
2019-04-10T09:48:06.527Z,98979.91
2019-04-10T09:50:35.837Z,98985.14
2019-04-10T09:53:05.256Z,98983.89
2019-04-10T09:55:34.474Z,98980.39
2019-04-10T09:58:03.674Z,98976.04
2019-04-10T10:00:33.944Z,98981.31
2019-04-10T10:03:03.547Z,98984.23
2019-04-10T10:05:32.761Z,98980.99
2019-04-10T10:08:02.213Z,98976.39
2019-04-10T10:10:34.512Z,98970.94
2019-04-10T10:13:03.329Z,98972.31
2019-04-10T10:15:33.450Z,98972.08
2019-04-10T10:18:03.381Z,98971.78
2019-04-10T10:20:32.709Z,98968.81
2019-04-10T10:23:01.986Z,98971.34
2019-04-10T10:25:31.317Z,98970.52
2019-04-10T10:28:00.442Z,98972.84
2019-04-10T10:30:30.091Z,98971.48
2019-04-10T10:32:59.421Z,98967.30
2019-04-10T10:35:29.369Z,98966.48
2019-04-10T10:37:59.010Z,98964.87
2019-04-10T10:40:28.294Z,98960.34
2019-04-10T10:42:58.162Z,98963.68
2019-04-10T10:45:27.564Z,98956.50
2019-04-10T10:47:56.904Z,98955.21
2019-04-10T10:50:26.123Z,98952.28
2019-04-10T10:52:55.617Z,98956.50
2019-04-10T10:55:25.418Z,98947.85
2019-04-10T10:57:55.453Z,98937.19
2019-04-10T11:00:25.179Z,98944.02
2019-04-10T11:02:54.651Z,98938.41
2019-04-10T11:05:23.701Z,98938.48
2019-04-10T11:07:53.099Z,98937.80
2019-04-10T11:10:27.061Z,98939.71
2019-04-10T11:12:55.177Z,98925.36
2019-04-10T11:15:26.016Z,98928.02
2019-04-10T11:17:55.398Z,98922.58
2019-04-10T11:20:25.574Z,98924.34
2019-04-10T11:22:55.827Z,98921.59
2019-04-10T11:25:26.127Z,98921.61
2019-04-10T11:27:56.466Z,98908.01
2019-04-10T11:30:26.933Z,98907.23
2019-04-10T11:32:56.417Z,98903.02
2019-04-10T11:35:26.540Z,98894.38
2019-04-10T11:37:59.194Z,98894.78
2019-04-10T11:40:29.571Z,98894.33
2019-04-10T11:43:01.765Z,98892.66
2019-04-10T11:45:38.039Z,98889.56
2019-04-10T11:48:02.299Z,98894.06
2019-04-10T11:50:32.678Z,98896.58
2019-04-10T11:53:02.752Z,98886.91
2019-04-10T11:55:42.451Z,98895.36
2019-04-10T11:58:03.037Z,98892.91
2019-04-10T12:00:50.592Z,98893.38
2019-04-10T12:03:17.508Z,98891.67
2019-04-10T12:05:48.042Z,98890.58
2019-04-10T12:08:36.255Z,98891.55
2019-04-10T12:13:19.746Z,98879.95
2019-04-10T12:15:50.380Z,98878.27
2019-04-10T12:18:19.761Z,98875.10
2019-04-10T12:20:49.329Z,98868.27
2019-04-10T12:23:18.822Z,98870.63
2019-04-10T12:25:49.271Z,98859.27
2019-04-10T12:28:18.664Z,98857.17
2019-04-10T12:30:47.986Z,98849.88
2019-04-10T12:33:17.223Z,98850.42
2019-04-10T12:35:46.421Z,98845.70
2019-04-10T12:38:15.624Z,98834.45
2019-04-10T12:40:44.843Z,98832.07
2019-04-10T12:43:14.059Z,98835.08
2019-04-10T12:45:44.181Z,98833.80
2019-04-10T12:48:14.535Z,98834.67
2019-04-10T12:50:44.000Z,98824.91
2019-04-10T12:53:13.570Z,98816.89
2019-04-10T12:55:43.737Z,98815.68
2019-04-10T12:58:17.259Z,98813.59
2019-04-10T13:00:44.586Z,98810.20
2019-04-10T13:03:14.643Z,98811.72
2019-04-10T13:05:45.244Z,98808.94
2019-04-10T13:08:21.049Z,98799.25
2019-04-10T13:10:45.858Z,98800.27
2019-04-10T13:13:15.086Z,98797.69
2019-04-10T13:15:45.568Z,98794.77
2019-04-10T13:18:14.940Z,98791.61
2019-04-10T13:20:44.247Z,98791.05
2019-04-10T13:23:14.879Z,98787.52
2019-04-10T13:25:55.379Z,98786.34
2019-04-10T13:28:15.366Z,98785.30
2019-04-10T13:30:52.413Z,98788.06
2019-04-10T13:33:16.419Z,98783.42
2019-04-10T13:35:46.296Z,98777.96
2019-04-10T13:38:25.785Z,98777.62
2019-04-10T13:40:48.018Z,98777.99
2019-04-10T13:43:18.025Z,98767.02
2019-04-10T13:45:48.617Z,98767.61
2019-04-10T13:48:17.888Z,98772.37
2019-04-10T13:50:47.176Z,98771.12
2019-04-10T13:53:17.528Z,98771.80
2019-04-10T13:55:46.845Z,98771.30
2019-04-10T13:58:17.197Z,98766.26
2019-04-10T14:00:47.139Z,98770.48
2019-04-10T14:03:16.725Z,98764.01
2019-04-10T14:05:47.625Z,98764.73
2019-04-10T14:08:17.014Z,98762.87
2019-04-10T14:10:46.816Z,98754.39
2019-04-10T14:13:16.335Z,98762.36
2019-04-10T14:15:46.382Z,98764.77
2019-04-10T14:18:16.650Z,98758.35
2019-04-10T14:20:46.028Z,98765.53
2019-04-10T14:23:18.005Z,98759.59
2019-04-10T14:25:52.060Z,98751.94
2019-04-10T14:28:22.959Z,98759.50
2019-04-10T14:30:53.744Z,98755.30
2019-04-10T14:33:23.338Z,98765.02
2019-04-10T14:35:53.671Z,98767.88
2019-04-10T14:38:23.273Z,98769.05
2019-04-10T14:40:53.534Z,98759.56
2019-04-10T14:43:23.090Z,98759.00
2019-04-10T14:45:52.321Z,98752.93
2019-04-10T14:48:22.358Z,98747.34
2019-04-10T14:50:51.661Z,98747.16
2019-04-10T14:53:20.920Z,98750.55
2019-04-10T14:55:50.131Z,98756.97
2019-04-10T14:58:23.956Z,98753.09
2019-04-10T15:00:50.961Z,98751.67
2019-04-10T15:03:22.498Z,98753.98
2019-04-10T15:05:54.470Z,98751.55
2019-04-10T15:08:23.797Z,98751.72
2019-04-10T15:10:53.279Z,98753.00
2019-04-10T15:13:24.238Z,98758.56
2019-04-10T15:15:53.623Z,98752.70
2019-04-10T15:18:22.905Z,98758.97
2019-04-10T15:20:52.321Z,98758.47
2019-04-10T15:23:21.516Z,98757.81
2019-04-10T15:25:51.237Z,98756.33
2019-04-10T15:28:20.891Z,98760.84
2019-04-10T15:30:50.804Z,98758.00
2019-04-10T15:33:20.579Z,98764.38
2019-04-10T15:35:49.872Z,98764.94
2019-04-10T15:38:19.999Z,98761.65
2019-04-10T15:40:50.321Z,98765.45
2019-04-10T15:43:20.893Z,98770.70
2019-04-10T15:45:50.491Z,98766.82
2019-04-10T15:48:20.919Z,98773.73
2019-04-10T15:50:50.246Z,98762.10
2019-04-10T15:53:20.236Z,98765.47
2019-04-10T15:55:49.683Z,98764.38
2019-04-10T15:58:21.548Z,98768.92
2019-04-10T16:00:51.743Z,98771.55
2019-04-10T16:03:21.847Z,98765.05
2019-04-10T16:05:51.412Z,98764.94
2019-04-10T16:08:20.835Z,98761.86
2019-04-10T16:11:07.910Z,98765.98
2019-04-10T16:13:38.913Z,98764.44
2019-04-10T16:16:19.125Z,98763.55
2019-04-10T16:18:50.200Z,98769.69
2019-04-10T16:21:20.334Z,98768.21
2019-04-10T16:24:00.555Z,98769.13
2019-04-10T16:26:32.157Z,98773.63
2019-04-10T16:29:02.020Z,98768.71
2019-04-10T16:31:31.886Z,98775.48
2019-04-10T16:34:01.374Z,98779.70
2019-04-10T16:36:30.595Z,98777.97
2019-04-10T16:39:00.794Z,98778.02
2019-04-10T16:41:31.165Z,98785.88
2019-04-10T16:44:00.700Z,98780.72
2019-04-10T16:46:29.970Z,98787.08
2019-04-10T16:49:00.217Z,98788.78
2019-04-10T16:51:29.553Z,98788.56
2019-04-10T16:54:00.169Z,98796.66
2019-04-10T16:56:29.804Z,98797.14
2019-04-10T16:59:00.400Z,98799.45
2019-04-10T17:01:30.961Z,98804.24
2019-04-10T17:04:00.798Z,98806.11
2019-04-10T17:06:30.437Z,98813.20
2019-04-10T17:09:00.618Z,98812.32
2019-04-10T17:11:30.790Z,98816.52
2019-04-10T17:14:01.054Z,98817.30
2019-04-10T17:16:31.277Z,98830.60
2019-04-10T17:19:00.881Z,98826.66
2019-04-10T17:21:31.127Z,98835.70
2019-04-10T17:24:00.864Z,98835.11
2019-04-10T17:26:31.011Z,98841.20
2019-04-10T17:29:00.893Z,98843.04
2019-04-10T17:31:30.787Z,98844.36
2019-04-10T17:34:00.639Z,98847.94
2019-04-10T17:36:30.046Z,98848.69
2019-04-10T17:39:00.728Z,98855.50
2019-04-10T17:41:31.307Z,98854.23
2019-04-10T17:44:02.440Z,98852.32
2019-04-10T17:46:31.538Z,98854.38
2019-04-10T17:49:01.287Z,98854.94
2019-04-10T17:51:30.586Z,98861.66
2019-04-10T17:54:00.036Z,98859.95
2019-04-10T17:56:30.475Z,98863.17
2019-04-10T17:59:00.484Z,98866.06
2019-04-10T18:01:30.025Z,98875.28
2019-04-10T18:04:02.996Z,98874.36
2019-04-10T18:06:31.131Z,98872.28
2019-04-10T18:09:01.193Z,98878.70
2019-04-10T18:11:30.617Z,98886.33
2019-04-10T18:14:00.833Z,98887.41
2019-04-10T18:16:31.303Z,98890.62
2019-04-10T18:19:00.659Z,98889.81
2019-04-10T18:21:30.871Z,98899.09
2019-04-10T18:24:00.433Z,98895.55
2019-04-10T18:26:31.869Z,98897.57
2019-04-10T18:29:02.328Z,98896.34
2019-04-10T18:31:32.615Z,98900.89
2019-04-10T18:34:03.213Z,98905.53
2019-04-10T18:36:33.199Z,98911.43
2019-04-10T18:39:02.840Z,98902.95
2019-04-10T18:41:32.220Z,98908.73
2019-04-10T18:44:01.508Z,98911.06
2019-04-10T18:46:31.286Z,98912.27
2019-04-10T18:49:01.059Z,98913.58
2019-04-10T18:51:30.302Z,98904.07
2019-04-10T18:53:59.761Z,98911.45
2019-04-10T18:56:29.281Z,98906.08
2019-04-10T18:59:07.903Z,98908.72
2019-04-10T19:01:43.154Z,98912.02
2019-04-10T19:04:14.260Z,98905.80
2019-04-10T19:06:49.706Z,98910.26
2019-04-10T19:09:24.610Z,98914.58
2019-04-10T19:11:50.609Z,98921.65
2019-04-10T19:14:20.716Z,98927.08
2019-04-10T19:16:50.266Z,98923.83
2019-04-10T19:19:20.474Z,98932.19
2019-04-10T19:21:50.091Z,98933.67
2019-04-10T19:24:21.927Z,98936.80
2019-04-10T19:26:51.888Z,98935.16
2019-04-10T19:29:21.426Z,98939.05
2019-04-10T19:31:52.731Z,98939.55
2019-04-10T19:34:23.354Z,98936.25
2019-04-10T19:36:54.349Z,98942.00
2019-04-10T19:39:24.467Z,98941.33
2019-04-10T19:41:55.322Z,98942.64
2019-04-10T19:44:25.554Z,98946.41
2019-04-10T19:46:56.333Z,98944.80
2019-04-10T19:49:26.090Z,98942.52
2019-04-10T19:51:56.038Z,98945.14
2019-04-10T19:54:26.147Z,98945.31
2019-04-10T19:56:55.728Z,98944.03
2019-04-10T19:59:25.056Z,98945.81
2019-04-10T20:01:54.810Z,98946.83
2019-04-10T20:04:24.346Z,98948.48
2019-04-10T20:06:54.439Z,98951.44
2019-04-10T20:09:24.426Z,98962.28
2019-04-10T20:11:56.924Z,98963.12
2019-04-10T20:14:24.860Z,98965.23
2019-04-10T20:16:53.993Z,98963.75
2019-04-10T20:19:24.617Z,98963.12
2019-04-10T20:21:54.521Z,98969.16
2019-04-10T20:24:25.035Z,98971.61
2019-04-10T20:26:54.474Z,98973.45
2019-04-10T20:29:23.938Z,98975.22
2019-04-10T20:31:55.359Z,98970.95
2019-04-10T20:34:25.387Z,98977.52
2019-04-10T20:36:55.395Z,98981.60
2019-04-10T20:39:25.364Z,98981.45
2019-04-10T20:41:56.683Z,98984.38
2019-04-10T20:44:25.596Z,98988.63
2019-04-10T20:46:55.025Z,98983.56
2019-04-10T20:49:24.346Z,98985.52
2019-04-10T20:51:53.728Z,98987.15
2019-04-10T20:54:23.150Z,98989.28
2019-04-10T20:56:52.760Z,98995.17
2019-04-10T20:59:22.004Z,99001.37
2019-04-10T21:01:51.459Z,98997.95
2019-04-10T21:04:23.537Z,99003.16
2019-04-10T21:06:52.977Z,99011.01
2019-04-10T21:09:23.554Z,99013.78
2019-04-10T21:12:02.665Z,99016.41
2019-04-10T21:14:24.280Z,99025.39
2019-04-10T21:16:53.520Z,99026.52
2019-04-10T21:19:22.960Z,99035.38
2019-04-10T21:21:52.244Z,99035.84
2019-04-10T21:24:21.677Z,99036.02
2019-04-10T21:26:51.038Z,99039.95
2019-04-10T21:29:38.411Z,99044.84
2019-04-10T21:32:09.511Z,99047.30
2019-04-10T21:34:40.508Z,99047.14
2019-04-10T21:37:10.172Z,99051.90
2019-04-10T21:39:39.582Z,99048.13
2019-04-10T21:42:18.184Z,99056.61
2019-04-10T21:44:40.569Z,99059.23
2019-04-10T21:47:11.071Z,99053.16
2019-04-10T21:49:42.129Z,99050.55
2019-04-10T21:52:11.434Z,99049.09
2019-04-10T21:54:49.770Z,99053.80
2019-04-10T21:57:11.729Z,99057.23
2019-04-10T21:59:40.925Z,99059.66
2019-04-10T22:02:11.124Z,99058.86
2019-04-10T22:04:41.401Z,99054.59
2019-04-10T22:07:12.271Z,99059.66
2019-04-10T22:09:43.272Z,99061.97
2019-04-10T22:12:27.658Z,99063.91
2019-04-10T22:14:51.244Z,99067.31
2019-04-10T22:17:20.563Z,99075.00
2019-04-10T22:19:50.747Z,99075.84
2019-04-10T22:22:20.368Z,99075.16
2019-04-10T22:24:50.567Z,99079.73
2019-04-10T22:27:20.038Z,99076.47
2019-04-10T22:29:49.358Z,99083.47
2019-04-10T22:32:19.253Z,99085.03
2019-04-10T22:34:48.549Z,99083.56
2019-04-10T22:37:17.816Z,99086.64
2019-04-10T22:39:48.193Z,99089.42
2019-04-10T22:42:17.774Z,99080.27
2019-04-10T22:44:48.230Z,99085.34
2019-04-10T22:47:17.582Z,99086.12
2019-04-10T22:49:47.219Z,99086.61
2019-04-10T22:52:17.670Z,99090.69
2019-04-10T22:54:46.967Z,99085.80
2019-04-10T22:57:16.252Z,99087.27
2019-04-10T22:59:46.689Z,99090.03
2019-04-10T23:02:16.558Z,99081.20
2019-04-10T23:04:47.011Z,99077.63
2019-04-10T23:07:17.571Z,99076.81
2019-04-10T23:09:47.170Z,99073.36
2019-04-10T23:12:16.281Z,99065.02
2019-04-10T23:14:45.436Z,99063.86
2019-04-10T23:17:14.829Z,99058.80
2019-04-10T23:19:44.573Z,99064.02
2019-04-10T23:22:13.851Z,99059.26
2019-04-10T23:24:43.490Z,99062.98
2019-04-10T23:27:13.387Z,99067.48
2019-04-10T23:29:42.728Z,99065.61
2019-04-10T23:32:11.868Z,99062.30
2019-04-10T23:34:41.054Z,99066.81
2019-04-10T23:37:10.903Z,99069.44
2019-04-10T23:39:40.603Z,99071.30
2019-04-10T23:42:10.830Z,99070.64
2019-04-10T23:44:40.793Z,99070.59
2019-04-10T23:47:10.238Z,99076.19
2019-04-10T23:49:39.550Z,99072.06
2019-04-10T23:52:09.688Z,99075.92
2019-04-10T23:54:39.483Z,99078.98
2019-04-10T23:57:10.013Z,99079.72
2019-04-10T23:59:39.780Z,99074.77
